Mustafa Sofuoglu — TCOJ7 — position and weather

sailwx.info

Track history (hours):
 
Tides and Currents Weather Stations Pressure Air Temp Water Temp Dewpoint Dewpoint Depression Visibility Wind Speed Wind Dir Waves Ship Positions

Mustafa Sofuoglu

Last reported at 2017-Oct-18 13:55 UTC. Time now 2017-Oct-20 05:09 UTC.
Position N 41°50' E 032°29'.

Length 106 m; draft 6.8 m.

Type: Cargo ship. MMSI: 271000831.

Date/timePositionNaut miles runAvg speedWind from/ knotsBaromVisibWave heightAir tempDewpointWater temp
2017-Oct-18 13:55N 41°50' E 032°29'512.3
2017-Oct-18 13:30N 41°48' E 032°22'612.7
2017-Oct-18 13:00N 41°45' E 032°15'713.1
2017-Oct-18 12:30N 41°41' E 032°08'613.0
2017-Oct-18 12:00N 41°38' E 032°01'713.0
2017-Oct-18 11:30N 41°34' E 031°53'613.1
2017-Oct-18 11:01N 41°31' E 031°46'712.6
2017-Oct-18 10:29N 41°27' E 031°38'12311.2
2017-Oct-17 23:30N 40°59' E 028°60'4 8.2
2017-Oct-17 23:00N 40°56' E 028°57'3 5.5
2017-Oct-17 22:28N 40°59' E 028°56'0 0.1
2017-Oct-17 21:57N 40°59' E 028°56'0 0.0
2017-Oct-17 21:27N 40°59' E 028°56'0 0.0
2017-Oct-17 20:57N 40°59' E 028°56'0 0.0
2017-Oct-17 20:21N 40°59' E 028°56'0 0.0
2017-Oct-17 19:51N 40°59' E 028°56'0 0.0
2017-Oct-17 19:27N 40°59' E 028°56'0 0.0
2017-Oct-17 18:57N 40°59' E 028°56'0 0.0
2017-Oct-17 16:45N 40°59' E 028°56'0 0.0
2017-Oct-17 15:57N 40°59' E 028°56'2 1.1
2017-Oct-17 14:17N 40°57' E 028°56'311.2
2017-Oct-17 14:00N 40°54' E 028°55'  
2017-Oct-11 22:33N 40°42' E 028°59'112.4
2017-Oct-11 22:29N 40°42' E 029°00'612.7
2017-Oct-11 22:00N 40°44' E 029°08'612.4
2017-Oct-11 21:30N 40°44' E 029°16'612.0
2017-Oct-11 20:59N 40°45' E 029°24'611.9
2017-Oct-11 20:30N 40°46' E 029°32'1 0.0
2017-Oct-10 12:36N 40°46' E 029°32'7 9.0
2017-Oct-10 11:49N 40°44' E 029°24'2 7.1
2017-Oct-10 11:30N 40°43' E 029°21'611.7
2017-Oct-10 11:00N 40°43' E 029°13'4 7.6
2017-Oct-10 10:30N 40°43' E 029°08'2 4.2
2017-Oct-10 10:00N 40°44' E 029°05'5 9.1
2017-Oct-10 09:29N 40°43' E 028°59'  
Track history (hours):
 
Tides and Currents Weather Stations Pressure Air Temp Water Temp Dewpoint Dewpoint Depression Visibility Wind Speed Wind Dir Waves Ship Positions

Mustafa Sofuoglu

Last reported at 2017-Oct-18 13:55 UTC. Time now 2017-Oct-20 05:09 UTC.
Position N 41°50' E 032°29'.

Length 106 m; draft 6.8 m.

Type: Cargo ship. MMSI: 271000831.

Date/timePositionNaut miles runAvg speedWind from/ knotsBaromVisibWave heightAir tempDewpointWater temp
2017-Oct-18 13:55N 41°50' E 032°29'512.3
2017-Oct-18 13:30N 41°48' E 032°22'612.7
2017-Oct-18 13:00N 41°45' E 032°15'713.1
2017-Oct-18 12:30N 41°41' E 032°08'613.0
2017-Oct-18 12:00N 41°38' E 032°01'713.0
2017-Oct-18 11:30N 41°34' E 031°53'613.1
2017-Oct-18 11:01N 41°31' E 031°46'712.6
2017-Oct-18 10:29N 41°27' E 031°38'12311.2
2017-Oct-17 23:30N 40°59' E 028°60'4 8.2
2017-Oct-17 23:00N 40°56' E 028°57'3 5.5
2017-Oct-17 22:28N 40°59' E 028°56'0 0.1
2017-Oct-17 21:57N 40°59' E 028°56'0 0.0
2017-Oct-17 21:27N 40°59' E 028°56'0 0.0
2017-Oct-17 20:57N 40°59' E 028°56'0 0.0
2017-Oct-17 20:21N 40°59' E 028°56'0 0.0
2017-Oct-17 19:51N 40°59' E 028°56'0 0.0
2017-Oct-17 19:27N 40°59' E 028°56'0 0.0
2017-Oct-17 18:57N 40°59' E 028°56'0 0.0
2017-Oct-17 16:45N 40°59' E 028°56'0 0.0
2017-Oct-17 15:57N 40°59' E 028°56'2 1.1
2017-Oct-17 14:17N 40°57' E 028°56'311.2
2017-Oct-17 14:00N 40°54' E 028°55'  
2017-Oct-11 22:33N 40°42' E 028°59'112.4
2017-Oct-11 22:29N 40°42' E 029°00'612.7
2017-Oct-11 22:00N 40°44' E 029°08'612.4
2017-Oct-11 21:30N 40°44' E 029°16'612.0
2017-Oct-11 20:59N 40°45' E 029°24'611.9
2017-Oct-11 20:30N 40°46' E 029°32'1 0.0
2017-Oct-10 12:36N 40°46' E 029°32'7 9.0
2017-Oct-10 11:49N 40°44' E 029°24'2 7.1
2017-Oct-10 11:30N 40°43' E 029°21'611.7
2017-Oct-10 11:00N 40°43' E 029°13'4 7.6
2017-Oct-10 10:30N 40°43' E 029°08'2 4.2
2017-Oct-10 10:00N 40°44' E 029°05'5 9.1
2017-Oct-10 09:29N 40°43' E 028°59'  

Dump ship's entire track history